EDT,Max TemperatureF,Mean TemperatureF,Min TemperatureF,Max Dew PointF,MeanDew PointF,Min DewpointF,Max Humidity, Mean Humidity, Min Humidity, Max Sea Level PressureIn, Mean Sea Level PressureIn, Min Sea Level PressureIn, Max VisibilityMiles, Mean VisibilityMiles, Min VisibilityMiles, Max Wind SpeedMPH, Mean Wind SpeedMPH, Max Gust SpeedMPH,PrecipitationIn, CloudCover, Events, WindDirDegrees
2011-10-1,50,44,37,39,37,36,93,81,58,30.17,30.08,30.00,10,10,7,17,10,25,0.00,7,Rain,347
2011-10-2,60,48,35,37,34,28,100,67,29,30.19,30.14,30.06,10,10,10,17,7,26,0.00,0,,334
2011-10-3,69,54,39,43,37,34,93,63,27,30.18,30.13,30.08,10,10,10,15,6,22,0.00,1,,320
2011-10-4,71,56,41,50,45,39,100,70,43,30.31,30.25,30.19,10,10,10,7,2,,0.00,0,,3
2011-10-5,78,60,42,57,46,43,100,71,28,30.32,30.28,30.22,10,6,0,4,0,,0.00,2,Fog,53
2011-10-6,78,61,44,54,49,43,100,70,32,30.34,30.29,30.26,10,8,1,6,1,,0.00,0,,134
2011-10-7,80,63,46,55,49,45,100,73,30,30.41,30.36,30.31,10,7,2,8,2,,0.00,0,,139
2011-10-8,80,64,48,55,51,46,100,69,32,30.42,30.37,30.34,10,9,3,8,4,,0.00,0,,155
2011-10-9,75,60,44,52,48,41,100,69,31,30.41,30.37,30.31,10,9,4,8,3,,0.00,0,,127
2011-10-10,78,64,50,52,47,41,88,60,28,30.29,30.22,30.12,10,10,10,8,4,,0.00,0,,131
2011-10-11,77,60,44,54,47,43,100,66,29,30.12,30.07,29.99,10,10,7,14,4,18,0.00,0,,148
2011-10-12,68,62,55,54,51,46,94,74,56,29.98,29.91,29.79,10,10,10,8,4,,0.00,7,,142
2011-10-13,62,56,51,59,54,52,100,92,77,29.75,29.63,29.50,10,6,1,12,4,,0.00,6,Rain,160
2011-10-14,60,53,46,55,46,37,100,74,45,29.64,29.56,29.48,10,10,3,26,14,39,0.06,6,Rain,275
2011-10-15,60,52,44,41,37,32,81,59,34,29.91,29.80,29.70,10,10,10,30,19,43,0.00,0,,268
2011-10-16,71,58,46,46,40,36,67,52,35,29.97,29.85,29.70,10,10,10,22,10,32,0.00,4,Rain,247
2011-10-17,60,48,37,37,31,23,87,53,23,29.92,29.88,29.83,10,10,10,18,10,28,0.00,1,,255
2011-10-18,46,44,42,45,42,37,100,90,71,29.88,29.80,29.72,10,9,3,12,7,16,0.27,8,Rain-Thunderstorm,340
2011-10-19,50,46,42,50,46,41,100,98,93,29.66,29.46,29.31,10,4,2,15,10,22,1.03,8,Rain,10
2011-10-20,44,42,41,45,41,37,100,94,87,29.77,29.38,29.20,10,7,2,31,16,41,0.21,8,Rain,279
2011-10-21,53,47,41,39,38,37,93,76,54,30.09,29.99,29.86,10,10,10,16,11,24,0.00,5,,271
2011-10-22,59,46,32,37,34,32,100,75,36,30.14,30.11,30.07,10,7,0,10,2,18,0.00,0,Fog,263
2011-10-23,64,50,35,46,38,34,93,71,45,30.07,30.03,29.97,10,10,10,16,3,23,0.00,3,,195
2011-10-24,60,55,50,52,46,36,94,77,42,30.09,30.00,29.92,10,10,4,16,9,28,0.14,4,Rain-Thunderstorm,258
2011-10-25,68,52,35,41,37,34,100,66,30,30.21,30.12,29.92,10,10,7,16,4,24,0.00,0,,189
2011-10-26,69,62,53,55,48,37,94,60,42,29.87,29.81,29.77,10,9,2,20,12,28,0.00,6,Rain-Thunderstorm,249
2011-10-27,48,44,37,46,41,36,100,92,71,30.09,29.90,29.81,10,7,2,16,9,21,0.05,7,Rain,4
2011-10-28,50,41,32,37,33,30,100,82,47,30.21,30.15,30.10,10,7,1,6,1,,0.00,2,,12
2011-10-29,53,42,30,36,32,28,100,78,38,30.10,30.06,30.03,10,8,2,15,3,22,0.00,2,Thunderstorm,280
2011-10-30,53,40,28,34,30,28,100,74,38,30.23,30.17,30.11,10,8,4,14,3,20,0.00,1,,189
2011-10-31,53,47,41,41,35,30,93,66,47,30.10,30.06,30.03,10,10,5,18,7,37,0.01,7,Rain-Thunderstorm,197